sensor_id;sensor_type;location;lat;lon;timestamp;pressure;altitude;pressure_sealevel;temperature;humidity
6694;BME280;3384;42.628;23.380;2023-06-19T00:01:42;94285.13;;;19.17;100.00
6694;BME280;3384;42.628;23.380;2023-06-19T00:04:09;94281.53;;;19.13;100.00
6694;BME280;3384;42.628;23.380;2023-06-19T00:06:37;94282.16;;;19.22;100.00
6694;BME280;3384;42.628;23.380;2023-06-19T00:09:06;94283.63;;;19.20;100.00
6694;BME280;3384;42.628;23.380;2023-06-19T00:11:32;94282.16;;;19.07;100.00
6694;BME280;3384;42.628;23.380;2023-06-19T00:13:59;94281.72;;;19.04;100.00
6694;BME280;3384;42.628;23.380;2023-06-19T00:16:26;94281.88;;;19.12;100.00
6694;BME280;3384;42.628;23.380;2023-06-19T00:18:53;94282.69;;;18.96;100.00
6694;BME280;3384;42.628;23.380;2023-06-19T00:21:21;94271.38;;;18.79;100.00
6694;BME280;3384;42.628;23.380;2023-06-19T00:23:51;94281.66;;;18.85;100.00
6694;BME280;3384;42.628;23.380;2023-06-19T00:26:18;94273.69;;;18.61;100.00
6694;BME280;3384;42.628;23.380;2023-06-19T00:28:48;94272.88;;;18.76;100.00
6694;BME280;3384;42.628;23.380;2023-06-19T00:31:14;94277.88;;;18.74;100.00
6694;BME280;3384;42.628;23.380;2023-06-19T00:33:42;94270.59;;;18.78;100.00
6694;BME280;3384;42.628;23.380;2023-06-19T00:36:09;94267.19;;;18.66;100.00
6694;BME280;3384;42.628;23.380;2023-06-19T00:38:37;94263.25;;;18.63;100.00
6694;BME280;3384;42.628;23.380;2023-06-19T00:41:05;94263.41;;;18.70;100.00
6694;BME280;3384;42.628;23.380;2023-06-19T00:43:32;94254.22;;;18.59;100.00
6694;BME280;3384;42.628;23.380;2023-06-19T00:45:59;94266.41;;;18.65;100.00
6694;BME280;3384;42.628;23.380;2023-06-19T00:48:27;94263.00;;;18.68;100.00
6694;BME280;3384;42.628;23.380;2023-06-19T00:50:55;94245.97;;;18.71;100.00
6694;BME280;3384;42.628;23.380;2023-06-19T00:53:23;94259.66;;;18.75;100.00
6694;BME280;3384;42.628;23.380;2023-06-19T00:55:51;94261.06;;;18.69;100.00
6694;BME280;3384;42.628;23.380;2023-06-19T00:58:20;94258.44;;;18.72;100.00
6694;BME280;3384;42.628;23.380;2023-06-19T01:00:47;94250.38;;;18.60;100.00
6694;BME280;3384;42.628;23.380;2023-06-19T01:03:14;94246.25;;;18.51;100.00
6694;BME280;3384;42.628;23.380;2023-06-19T01:05:41;94243.88;;;18.49;100.00
6694;BME280;3384;42.628;23.380;2023-06-19T01:08:10;94237.31;;;18.81;100.00
6694;BME280;3384;42.628;23.380;2023-06-19T01:10:43;94235.91;;;18.72;100.00
6694;BME280;3384;42.628;23.380;2023-06-19T01:13:16;94233.38;;;18.63;100.00
6694;BME280;3384;42.628;23.380;2023-06-19T01:15:47;94226.47;;;18.66;100.00
6694;BME280;3384;42.628;23.380;2023-06-19T01:18:15;94229.84;;;18.78;100.00
6694;BME280;3384;42.628;23.380;2023-06-19T01:20:43;94230.50;;;18.72;100.00
6694;BME280;3384;42.628;23.380;2023-06-19T01:23:11;94233.47;;;18.82;100.00
6694;BME280;3384;42.628;23.380;2023-06-19T01:25:38;94243.34;;;18.90;100.00
6694;BME280;3384;42.628;23.380;2023-06-19T01:28:07;94242.03;;;18.84;100.00
6694;BME280;3384;42.628;23.380;2023-06-19T01:30:41;94241.19;;;18.49;100.00
6694;BME280;3384;42.628;23.380;2023-06-19T01:33:12;94244.09;;;18.13;100.00
6694;BME280;3384;42.628;23.380;2023-06-19T01:35:43;94241.00;;;17.99;100.00
6694;BME280;3384;42.628;23.380;2023-06-19T01:38:12;94238.53;;;17.94;100.00
6694;BME280;3384;42.628;23.380;2023-06-19T01:40:40;94236.19;;;17.65;100.00
6694;BME280;3384;42.628;23.380;2023-06-19T01:43:08;94235.66;;;17.48;100.00
6694;BME280;3384;42.628;23.380;2023-06-19T01:45:35;94240.06;;;17.40;100.00
6694;BME280;3384;42.628;23.380;2023-06-19T01:48:02;94240.19;;;17.44;100.00
6694;BME280;3384;42.628;23.380;2023-06-19T01:50:29;94236.81;;;17.35;100.00
6694;BME280;3384;42.628;23.380;2023-06-19T01:52:56;94239.75;;;17.30;100.00
6694;BME280;3384;42.628;23.380;2023-06-19T01:55:24;94238.41;;;17.24;100.00
6694;BME280;3384;42.628;23.380;2023-06-19T01:57:51;94232.81;;;17.56;100.00
6694;BME280;3384;42.628;23.380;2023-06-19T02:00:18;94232.38;;;17.54;100.00
6694;BME280;3384;42.628;23.380;2023-06-19T02:02:45;94219.91;;;17.14;100.00
6694;BME280;3384;42.628;23.380;2023-06-19T02:05:12;94239.94;;;17.37;100.00
6694;BME280;3384;42.628;23.380;2023-06-19T02:07:39;94237.03;;;17.30;100.00
6694;BME280;3384;42.628;23.380;2023-06-19T02:10:07;94240.41;;;17.51;100.00
6694;BME280;3384;42.628;23.380;2023-06-19T02:12:35;94250.03;;;17.24;100.00
6694;BME280;3384;42.628;23.380;2023-06-19T02:15:03;94248.22;;;17.28;100.00
6694;BME280;3384;42.628;23.380;2023-06-19T02:17:29;94244.34;;;17.41;100.00
6694;BME280;3384;42.628;23.380;2023-06-19T02:19:56;94242.84;;;17.16;100.00
6694;BME280;3384;42.628;23.380;2023-06-19T02:22:23;94237.66;;;16.99;100.00
6694;BME280;3384;42.628;23.380;2023-06-19T02:24:51;94239.47;;;16.83;100.00
6694;BME280;3384;42.628;23.380;2023-06-19T02:27:18;94229.31;;;16.80;100.00
6694;BME280;3384;42.628;23.380;2023-06-19T02:29:46;94235.75;;;16.76;100.00
6694;BME280;3384;42.628;23.380;2023-06-19T02:32:13;94237.69;;;16.75;100.00
6694;BME280;3384;42.628;23.380;2023-06-19T02:34:40;94235.31;;;16.74;100.00
6694;BME280;3384;42.628;23.380;2023-06-19T02:37:07;94234.28;;;16.78;100.00
6694;BME280;3384;42.628;23.380;2023-06-19T02:39:34;94235.41;;;16.77;100.00
6694;BME280;3384;42.628;23.380;2023-06-19T02:42:00;94249.50;;;16.47;100.00
6694;BME280;3384;42.628;23.380;2023-06-19T02:44:27;94238.91;;;16.54;100.00
6694;BME280;3384;42.628;23.380;2023-06-19T02:46:55;94239.22;;;16.40;100.00
6694;BME280;3384;42.628;23.380;2023-06-19T02:49:22;94234.47;;;16.37;100.00
6694;BME280;3384;42.628;23.380;2023-06-19T02:51:49;94217.69;;;16.31;100.00
6694;BME280;3384;42.628;23.380;2023-06-19T02:54:15;94233.97;;;16.56;100.00
6694;BME280;3384;42.628;23.380;2023-06-19T02:56:42;94236.88;;;16.51;100.00
6694;BME280;3384;42.628;23.380;2023-06-19T02:59:09;94236.78;;;16.47;100.00
6694;BME280;3384;42.628;23.380;2023-06-19T03:01:36;94235.97;;;16.47;100.00
6694;BME280;3384;42.628;23.380;2023-06-19T03:04:04;94231.63;;;16.33;100.00
6694;BME280;3384;42.628;23.380;2023-06-19T03:06:31;94237.19;;;16.37;100.00
6694;BME280;3384;42.628;23.380;2023-06-19T03:08:58;94236.63;;;16.43;100.00
6694;BME280;3384;42.628;23.380;2023-06-19T03:11:25;94240.38;;;16.51;100.00
6694;BME280;3384;42.628;23.380;2023-06-19T03:13:53;94238.00;;;16.50;100.00
6694;BME280;3384;42.628;23.380;2023-06-19T03:16:20;94239.13;;;16.49;100.00
6694;BME280;3384;42.628;23.380;2023-06-19T03:18:47;94236.03;;;16.38;100.00
6694;BME280;3384;42.628;23.380;2023-06-19T03:21:16;94238.41;;;16.27;100.00
6694;BME280;3384;42.628;23.380;2023-06-19T03:23:44;94233.00;;;16.27;100.00
6694;BME280;3384;42.628;23.380;2023-06-19T03:26:18;94233.66;;;16.36;100.00
6694;BME280;3384;42.628;23.380;2023-06-19T03:28:45;94231.19;;;16.31;100.00
6694;BME280;3384;42.628;23.380;2023-06-19T03:31:12;94223.19;;;16.23;100.00
6694;BME280;3384;42.628;23.380;2023-06-19T03:33:39;94227.13;;;16.13;100.00
6694;BME280;3384;42.628;23.380;2023-06-19T03:36:06;94218.44;;;16.32;100.00
6694;BME280;3384;42.628;23.380;2023-06-19T03:38:35;94225.63;;;16.49;100.00
6694;BME280;3384;42.628;23.380;2023-06-19T03:41:02;94225.16;;;16.47;100.00
6694;BME280;3384;42.628;23.380;2023-06-19T03:43:29;94230.91;;;16.57;100.00
6694;BME280;3384;42.628;23.380;2023-06-19T03:45:55;94234.97;;;16.63;100.00
6694;BME280;3384;42.628;23.380;2023-06-19T03:48:22;94238.00;;;16.50;100.00
6694;BME280;3384;42.628;23.380;2023-06-19T03:50:49;94239.81;;;16.58;100.00
6694;BME280;3384;42.628;23.380;2023-06-19T03:53:16;94234.84;;;16.60;100.00
6694;BME280;3384;42.628;23.380;2023-06-19T03:55:44;94235.88;;;16.55;100.00
6694;BME280;3384;42.628;23.380;2023-06-19T03:58:11;94233.28;;;16.71;100.00
6694;BME280;3384;42.628;23.380;2023-06-19T04:00:38;94233.97;;;16.80;100.00
6694;BME280;3384;42.628;23.380;2023-06-19T04:03:05;94237.56;;;16.84;100.00
6694;BME280;3384;42.628;23.380;2023-06-19T04:05:32;94234.06;;;16.95;100.00
6694;BME280;3384;42.628;23.380;2023-06-19T04:07:58;94228.16;;;17.05;100.00
6694;BME280;3384;42.628;23.380;2023-06-19T04:10:25;94239.78;;;17.06;100.00
6694;BME280;3384;42.628;23.380;2023-06-19T04:12:53;94235.91;;;17.31;100.00
6694;BME280;3384;42.628;23.380;2023-06-19T04:15:21;94238.72;;;17.46;100.00
6694;BME280;3384;42.628;23.380;2023-06-19T04:17:48;94246.13;;;17.61;100.00
6694;BME280;3384;42.628;23.380;2023-06-19T04:20:15;94242.94;;;17.71;100.00
6694;BME280;3384;42.628;23.380;2023-06-19T04:22:41;94243.38;;;17.73;100.00
6694;BME280;3384;42.628;23.380;2023-06-19T04:25:10;94238.88;;;17.65;100.00
6694;BME280;3384;42.628;23.380;2023-06-19T04:27:37;94247.09;;;17.69;100.00
6694;BME280;3384;42.628;23.380;2023-06-19T04:30:06;94242.69;;;17.76;100.00
6694;BME280;3384;42.628;23.380;2023-06-19T04:32:33;94246.75;;;17.70;100.00
6694;BME280;3384;42.628;23.380;2023-06-19T04:35:01;94238.69;;;17.86;100.00
6694;BME280;3384;42.628;23.380;2023-06-19T04:37:27;94245.97;;;17.97;100.00
6694;BME280;3384;42.628;23.380;2023-06-19T04:39:54;94241.50;;;17.89;100.00
6694;BME280;3384;42.628;23.380;2023-06-19T04:42:24;94232.75;;;17.96;100.00
6694;BME280;3384;42.628;23.380;2023-06-19T04:44:52;94244.41;;;17.96;100.00
6694;BME280;3384;42.628;23.380;2023-06-19T04:47:25;94254.56;;;17.99;100.00
6694;BME280;3384;42.628;23.380;2023-06-19T04:49:52;94248.72;;;18.13;100.00
6694;BME280;3384;42.628;23.380;2023-06-19T04:52:26;94245.16;;;18.24;100.00
6694;BME280;3384;42.628;23.380;2023-06-19T04:54:54;94242.97;;;18.30;100.00
6694;BME280;3384;42.628;23.380;2023-06-19T04:57:21;94267.91;;;18.47;100.00
6694;BME280;3384;42.628;23.380;2023-06-19T04:59:48;94246.91;;;18.32;100.00
6694;BME280;3384;42.628;23.380;2023-06-19T05:02:16;94240.88;;;18.23;100.00
6694;BME280;3384;42.628;23.380;2023-06-19T05:04:44;94248.09;;;18.19;100.00
6694;BME280;3384;42.628;23.380;2023-06-19T05:07:13;94249.25;;;18.18;100.00
6694;BME280;3384;42.628;23.380;2023-06-19T05:09:40;94245.94;;;18.09;100.00
6694;BME280;3384;42.628;23.380;2023-06-19T05:12:08;94245.78;;;18.18;100.00
6694;BME280;3384;42.628;23.380;2023-06-19T05:14:35;94239.47;;;18.29;100.00
6694;BME280;3384;42.628;23.380;2023-06-19T05:17:02;94246.00;;;18.40;100.00
6694;BME280;3384;42.628;23.380;2023-06-19T05:19:29;94245.16;;;18.24;100.00
6694;BME280;3384;42.628;23.380;2023-06-19T05:21:57;94260.19;;;18.80;100.00
6694;BME280;3384;42.628;23.380;2023-06-19T05:24:25;94267.50;;;18.95;100.00
6694;BME280;3384;42.628;23.380;2023-06-19T05:26:52;94275.84;;;19.02;100.00
6694;BME280;3384;42.628;23.380;2023-06-19T05:29:18;94293.03;;;18.91;100.00
6694;BME280;3384;42.628;23.380;2023-06-19T05:31:48;94295.75;;;19.07;100.00
6694;BME280;3384;42.628;23.380;2023-06-19T05:34:15;94300.03;;;19.08;100.00
6694;BME280;3384;42.628;23.380;2023-06-19T05:36:45;94295.13;;;19.13;100.00
6694;BME280;3384;42.628;23.380;2023-06-19T05:39:15;94311.69;;;19.24;100.00
6694;BME280;3384;42.628;23.380;2023-06-19T05:41:44;94310.38;;;19.18;100.00
6694;BME280;3384;42.628;23.380;2023-06-19T05:44:12;94303.34;;;19.17;100.00
6694;BME280;3384;42.628;23.380;2023-06-19T05:46:42;94310.03;;;19.35;100.00
6694;BME280;3384;42.628;23.380;2023-06-19T05:49:10;94301.25;;;19.26;100.00
6694;BME280;3384;42.628;23.380;2023-06-19T05:51:37;94306.97;;;19.36;100.00
6694;BME280;3384;42.628;23.380;2023-06-19T05:54:04;94306.41;;;19.46;100.00
6694;BME280;3384;42.628;23.380;2023-06-19T05:56:33;94296.69;;;19.30;100.00
6694;BME280;3384;42.628;23.380;2023-06-19T05:59:00;94297.31;;;19.39;100.00
6694;BME280;3384;42.628;23.380;2023-06-19T06:01:27;94298.13;;;19.08;100.00
6694;BME280;3384;42.628;23.380;2023-06-19T06:03:54;94317.81;;;19.36;100.00
6694;BME280;3384;42.628;23.380;2023-06-19T06:06:21;94305.44;;;19.23;100.00
6694;BME280;3384;42.628;23.380;2023-06-19T06:08:51;94320.78;;;19.47;100.00
6694;BME280;3384;42.628;23.380;2023-06-19T06:11:20;94312.25;;;19.48;100.00
6694;BME280;3384;42.628;23.380;2023-06-19T06:13:51;94319.75;;;19.70;100.00
6694;BME280;3384;42.628;23.380;2023-06-19T06:16:18;94328.19;;;19.65;100.00
6694;BME280;3384;42.628;23.380;2023-06-19T06:18:48;94324.00;;;19.52;100.00
6694;BME280;3384;42.628;23.380;2023-06-19T06:21:14;94326.34;;;19.69;100.00
6694;BME280;3384;42.628;23.380;2023-06-19T06:23:44;94330.56;;;19.67;100.00
6694;BME280;3384;42.628;23.380;2023-06-19T06:26:13;94329.56;;;19.75;100.00
6694;BME280;3384;42.628;23.380;2023-06-19T06:28:40;94322.47;;;19.70;100.00
6694;BME280;3384;42.628;23.380;2023-06-19T06:31:08;94325.34;;;19.77;100.00
6694;BME280;3384;42.628;23.380;2023-06-19T06:33:35;94325.56;;;19.88;100.00
6694;BME280;3384;42.628;23.380;2023-06-19T06:36:02;94332.38;;;19.78;100.00
6694;BME280;3384;42.628;23.380;2023-06-19T06:38:29;94322.75;;;19.84;100.00
6694;BME280;3384;42.628;23.380;2023-06-19T06:40:56;94320.63;;;19.93;100.00
6694;BME280;3384;42.628;23.380;2023-06-19T06:43:23;94326.81;;;20.09;100.00
6694;BME280;3384;42.628;23.380;2023-06-19T06:45:50;94330.72;;;19.93;100.00
6694;BME280;3384;42.628;23.380;2023-06-19T06:48:18;94334.13;;;20.05;100.00
6694;BME280;3384;42.628;23.380;2023-06-19T06:50:45;94328.69;;;20.05;100.00
6694;BME280;3384;42.628;23.380;2023-06-19T06:53:12;94337.06;;;20.16;100.00
6694;BME280;3384;42.628;23.380;2023-06-19T06:55:38;94340.66;;;20.20;100.00
6694;BME280;3384;42.628;23.380;2023-06-19T06:58:05;94345.38;;;20.23;100.00
6694;BME280;3384;42.628;23.380;2023-06-19T07:00:32;94340.53;;;20.32;100.00
6694;BME280;3384;42.628;23.380;2023-06-19T07:02:59;94322.53;;;20.27;100.00
6694;BME280;3384;42.628;23.380;2023-06-19T07:05:27;94336.06;;;20.24;100.00
6694;BME280;3384;42.628;23.380;2023-06-19T07:07:55;94341.03;;;20.37;100.00
6694;BME280;3384;42.628;23.380;2023-06-19T07:10:22;94328.41;;;20.48;100.00
6694;BME280;3384;42.628;23.380;2023-06-19T07:12:49;94334.63;;;20.49;100.00
6694;BME280;3384;42.628;23.380;2023-06-19T07:15:16;94332.59;;;20.65;100.00
6694;BME280;3384;42.628;23.380;2023-06-19T07:17:44;94326.88;;;20.70;100.00
6694;BME280;3384;42.628;23.380;2023-06-19T07:20:11;94333.31;;;20.62;100.00
6694;BME280;3384;42.628;23.380;2023-06-19T07:22:39;94334.47;;;20.61;100.00
6694;BME280;3384;42.628;23.380;2023-06-19T07:25:07;94324.41;;;20.65;100.00
6694;BME280;3384;42.628;23.380;2023-06-19T07:27:34;94334.44;;;20.80;100.00
6694;BME280;3384;42.628;23.380;2023-06-19T07:30:01;94332.59;;;20.65;100.00
6694;BME280;3384;42.628;23.380;2023-06-19T07:32:28;94338.28;;;20.79;100.00
6694;BME280;3384;42.628;23.380;2023-06-19T07:34:55;94329.75;;;20.80;100.00
6694;BME280;3384;42.628;23.380;2023-06-19T07:37:22;94328.81;;;20.92;100.00
6694;BME280;3384;42.628;23.380;2023-06-19T07:39:51;94341.78;;;20.98;100.00
6694;BME280;3384;42.628;23.380;2023-06-19T07:42:18;94331.41;;;21.04;100.00
6694;BME280;3384;42.628;23.380;2023-06-19T07:44:45;94336.13;;;20.88;100.00
6694;BME280;3384;42.628;23.380;2023-06-19T07:47:13;94339.00;;;20.95;100.00
6694;BME280;3384;42.628;23.380;2023-06-19T07:49:40;94334.53;;;21.06;100.00
6694;BME280;3384;42.628;23.380;2023-06-19T07:52:07;94337.97;;;21.03;100.00
6694;BME280;3384;42.628;23.380;2023-06-19T07:54:35;94325.50;;;21.02;100.00
6694;BME280;3384;42.628;23.380;2023-06-19T07:57:04;94354.56;;;21.17;100.00
6694;BME280;3384;42.628;23.380;2023-06-19T07:59:31;94329.91;;;21.32;100.00
6694;BME280;3384;42.628;23.380;2023-06-19T08:01:57;94342.81;;;21.35;100.00
6694;BME280;3384;42.628;23.380;2023-06-19T08:04:24;94334.88;;;21.27;100.00
6694;BME280;3384;42.628;23.380;2023-06-19T08:06:51;94325.53;;;21.28;100.00
6694;BME280;3384;42.628;23.380;2023-06-19T08:09:18;94333.00;;;21.31;100.00
6694;BME280;3384;42.628;23.380;2023-06-19T08:11:45;94335.59;;;21.24;100.00
6694;BME280;3384;42.628;23.380;2023-06-19T08:14:13;94337.81;;;21.41;100.00
6694;BME280;3384;42.628;23.380;2023-06-19T08:16:40;94342.56;;;21.44;100.00
6694;BME280;3384;42.628;23.380;2023-06-19T08:19:06;94342.38;;;21.56;97.86
6694;BME280;3384;42.628;23.380;2023-06-19T08:21:33;94331.50;;;21.59;99.60
6694;BME280;3384;42.628;23.380;2023-06-19T08:24:00;94338.88;;;21.59;87.13
6694;BME280;3384;42.628;23.380;2023-06-19T08:26:27;94333.75;;;21.54;91.16
6694;BME280;3384;42.628;23.380;2023-06-19T08:28:54;94325.59;;;21.57;92.22
6694;BME280;3384;42.628;23.380;2023-06-19T08:31:22;94337.66;;;21.79;96.12
6694;BME280;3384;42.628;23.380;2023-06-19T08:33:52;94335.13;;;21.93;99.21
6694;BME280;3384;42.628;23.380;2023-06-19T08:36:19;94340.53;;;21.90;81.02
6694;BME280;3384;42.628;23.380;2023-06-19T08:38:47;94344.69;;;21.80;80.80
6694;BME280;3384;42.628;23.380;2023-06-19T08:41:16;94339.75;;;21.89;83.83
6694;BME280;3384;42.628;23.380;2023-06-19T08:43:44;94351.72;;;21.81;77.19
6694;BME280;3384;42.628;23.380;2023-06-19T08:46:13;94343.53;;;21.81;80.04
6694;BME280;3384;42.628;23.380;2023-06-19T08:48:42;94345.31;;;21.96;81.99
6694;BME280;3384;42.628;23.380;2023-06-19T08:51:10;94344.47;;;21.92;77.30
6694;BME280;3384;42.628;23.380;2023-06-19T08:53:44;94338.38;;;22.02;75.26
6694;BME280;3384;42.628;23.380;2023-06-19T08:56:11;94340.31;;;22.02;75.54
6694;BME280;3384;42.628;23.380;2023-06-19T08:58:38;94328.28;;;22.06;77.43
6694;BME280;3384;42.628;23.380;2023-06-19T09:01:05;94345.28;;;22.22;77.73
6694;BME280;3384;42.628;23.380;2023-06-19T09:03:32;94364.66;;;22.14;75.85
6694;BME280;3384;42.628;23.380;2023-06-19T09:06:04;94345.94;;;22.16;77.00
6694;BME280;3384;42.628;23.380;2023-06-19T09:08:32;94340.47;;;22.12;77.45
6694;BME280;3384;42.628;23.380;2023-06-19T09:11:00;94330.75;;;22.18;76.40
6694;BME280;3384;42.628;23.380;2023-06-19T09:13:28;94338.31;;;22.28;75.69
6694;BME280;3384;42.628;23.380;2023-06-19T09:15:59;94332.16;;;22.35;77.95
6694;BME280;3384;42.628;23.380;2023-06-19T09:18:29;94341.19;;;22.42;78.71
6694;BME280;3384;42.628;23.380;2023-06-19T09:20:56;94334.59;;;22.43;74.04
6694;BME280;3384;42.628;23.380;2023-06-19T09:23:25;94337.72;;;22.42;73.28
6694;BME280;3384;42.628;23.380;2023-06-19T09:25:53;94335.72;;;22.39;73.27
6694;BME280;3384;42.628;23.380;2023-06-19T09:28:22;94332.75;;;22.51;73.37
6694;BME280;3384;42.628;23.380;2023-06-19T09:30:56;94328.63;;;22.64;70.93
6694;BME280;3384;42.628;23.380;2023-06-19T09:33:25;94323.44;;;22.55;71.91
6694;BME280;3384;42.628;23.380;2023-06-19T09:35:54;94331.69;;;22.59;71.92
6694;BME280;3384;42.628;23.380;2023-06-19T09:38:21;94338.53;;;22.46;70.20
6694;BME280;3384;42.628;23.380;2023-06-19T09:40:51;94339.53;;;22.60;69.06
6694;BME280;3384;42.628;23.380;2023-06-19T09:43:23;94327.19;;;22.44;69.66
6694;BME280;3384;42.628;23.380;2023-06-19T09:45:50;94322.34;;;22.63;68.15
6694;BME280;3384;42.628;23.380;2023-06-19T09:48:20;94319.97;;;22.58;70.07
6694;BME280;3384;42.628;23.380;2023-06-19T09:50:51;94318.34;;;22.90;69.34
6694;BME280;3384;42.628;23.380;2023-06-19T09:53:18;94320.81;;;23.02;65.74
6694;BME280;3384;42.628;23.380;2023-06-19T09:55:48;94337.97;;;22.99;66.59
6694;BME280;3384;42.628;23.380;2023-06-19T09:58:19;94321.06;;;22.90;66.99
6694;BME280;3384;42.628;23.380;2023-06-19T10:00:47;94328.53;;;22.93;66.27
6694;BME280;3384;42.628;23.380;2023-06-19T10:03:16;94326.97;;;22.96;63.73
6694;BME280;3384;42.628;23.380;2023-06-19T10:05:43;94326.41;;;22.76;64.13
6694;BME280;3384;42.628;23.380;2023-06-19T10:08:10;94323.19;;;22.67;66.89
6694;BME280;3384;42.628;23.380;2023-06-19T10:10:46;94312.91;;;22.94;62.42
6694;BME280;3384;42.628;23.380;2023-06-19T10:13:15;94317.91;;;22.85;61.17
6694;BME280;3384;42.628;23.380;2023-06-19T10:15:46;94312.69;;;23.09;61.48
6694;BME280;3384;42.628;23.380;2023-06-19T10:18:14;94306.34;;;23.02;63.84
6694;BME280;3384;42.628;23.380;2023-06-19T10:20:43;94307.97;;;23.10;65.46
6694;BME280;3384;42.628;23.380;2023-06-19T10:23:12;94303.94;;;22.93;63.19
6694;BME280;3384;42.628;23.380;2023-06-19T10:25:42;94294.56;;;22.94;57.98
6694;BME280;3384;42.628;23.380;2023-06-19T10:28:22;94308.75;;;23.07;57.73
6694;BME280;3384;42.628;23.380;2023-06-19T10:30:55;94304.09;;;23.11;57.12
6694;BME280;3384;42.628;23.380;2023-06-19T10:33:24;94303.63;;;23.02;58.02
6694;BME280;3384;42.628;23.380;2023-06-19T10:35:51;94298.25;;;23.12;59.87
6694;BME280;3384;42.628;23.380;2023-06-19T10:38:18;94307.72;;;23.22;60.26
6694;BME280;3384;42.628;23.380;2023-06-19T10:40:45;94305.13;;;23.39;61.43
6694;BME280;3384;42.628;23.380;2023-06-19T10:43:13;94299.47;;;23.18;61.84
6694;BME280;3384;42.628;23.380;2023-06-19T10:45:45;94288.13;;;23.16;58.11
6694;BME280;3384;42.628;23.380;2023-06-19T10:48:18;94292.44;;;23.17;58.04
6694;BME280;3384;42.628;23.380;2023-06-19T10:50:46;94288.22;;;23.23;62.19
6694;BME280;3384;42.628;23.380;2023-06-19T10:53:23;94309.13;;;23.49;59.26
6694;BME280;3384;42.628;23.380;2023-06-19T10:55:54;94289.53;;;23.43;60.08
6694;BME280;3384;42.628;23.380;2023-06-19T10:58:22;94290.44;;;23.61;61.91
6694;BME280;3384;42.628;23.380;2023-06-19T11:00:48;94295.53;;;23.63;57.78
6694;BME280;3384;42.628;23.380;2023-06-19T11:03:17;94284.94;;;23.54;58.83
6694;BME280;3384;42.628;23.380;2023-06-19T11:05:45;94290.63;;;23.89;59.22
6694;BME280;3384;42.628;23.380;2023-06-19T11:08:17;94300.00;;;23.88;59.86
6694;BME280;3384;42.628;23.380;2023-06-19T11:10:44;94281.75;;;23.49;61.28
6694;BME280;3384;42.628;23.380;2023-06-19T11:13:14;94284.59;;;23.63;62.82
6694;BME280;3384;42.628;23.380;2023-06-19T11:15:41;94281.06;;;23.59;64.82
6694;BME280;3384;42.628;23.380;2023-06-19T11:18:08;94285.44;;;23.74;62.46
6694;BME280;3384;42.628;23.380;2023-06-19T11:20:45;94282.75;;;23.84;64.25
6694;BME280;3384;42.628;23.380;2023-06-19T11:23:12;94283.13;;;23.79;63.32
6694;BME280;3384;42.628;23.380;2023-06-19T11:25:41;94273.53;;;24.10;66.57
6694;BME280;3384;42.628;23.380;2023-06-19T11:28:11;94284.50;;;24.17;68.63
6694;BME280;3384;42.628;23.380;2023-06-19T11:30:38;94274.66;;;24.02;67.14
6694;BME280;3384;42.628;23.380;2023-06-19T11:33:15;94270.63;;;23.78;69.36
6694;BME280;3384;42.628;23.380;2023-06-19T11:35:48;94280.00;;;23.84;70.78
6694;BME280;3384;42.628;23.380;2023-06-19T11:38:19;94268.81;;;24.07;70.59
6694;BME280;3384;42.628;23.380;2023-06-19T11:40:47;94272.00;;;24.13;69.27
6694;BME280;3384;42.628;23.380;2023-06-19T11:43:24;94274.38;;;24.25;72.58
6694;BME280;3384;42.628;23.380;2023-06-19T11:45:51;94288.41;;;24.13;73.12
6694;BME280;3384;42.628;23.380;2023-06-19T11:48:22;94277.06;;;24.11;73.40
6694;BME280;3384;42.628;23.380;2023-06-19T11:50:51;94280.59;;;24.15;76.33
6694;BME280;3384;42.628;23.380;2023-06-19T11:53:18;94267.72;;;24.22;73.34
6694;BME280;3384;42.628;23.380;2023-06-19T11:55:45;94262.66;;;24.28;74.24
6694;BME280;3384;42.628;23.380;2023-06-19T11:58:12;94270.50;;;24.36;74.11
6694;BME280;3384;42.628;23.380;2023-06-19T12:00:40;94265.81;;;24.37;73.35
6694;BME280;3384;42.628;23.380;2023-06-19T12:03:07;94265.03;;;24.40;73.10
6694;BME280;3384;42.628;23.380;2023-06-19T12:05:35;94253.31;;;24.50;72.83
6694;BME280;3384;42.628;23.380;2023-06-19T12:08:03;94252.91;;;24.34;74.91
6694;BME280;3384;42.628;23.380;2023-06-19T12:10:31;94254.09;;;24.47;74.58
6694;BME280;3384;42.628;23.380;2023-06-19T12:12:57;94251.72;;;24.45;77.24
6694;BME280;3384;42.628;23.380;2023-06-19T12:15:24;94261.91;;;24.38;75.56
6694;BME280;3384;42.628;23.380;2023-06-19T12:17:51;94258.75;;;24.36;76.51
6694;BME280;3384;42.628;23.380;2023-06-19T12:20:19;94251.31;;;24.40;75.26
6694;BME280;3384;42.628;23.380;2023-06-19T12:22:46;94259.53;;;24.40;73.39
6694;BME280;3384;42.628;23.380;2023-06-19T12:25:14;94261.81;;;24.17;75.39
6694;BME280;3384;42.628;23.380;2023-06-19T12:27:40;94245.84;;;24.36;76.99
6694;BME280;3384;42.628;23.380;2023-06-19T12:30:08;94261.50;;;24.32;78.40
6694;BME280;3384;42.628;23.380;2023-06-19T12:32:35;94258.41;;;24.48;76.55
6694;BME280;3384;42.628;23.380;2023-06-19T12:35:02;94245.06;;;24.43;79.27
6694;BME280;3384;42.628;23.380;2023-06-19T12:37:29;94242.34;;;24.39;76.33
6694;BME280;3384;42.628;23.380;2023-06-19T12:39:57;94259.16;;;24.41;74.80
6694;BME280;3384;42.628;23.380;2023-06-19T12:42:25;94247.00;;;24.32;76.83
6694;BME280;3384;42.628;23.380;2023-06-19T12:44:52;94246.25;;;24.52;77.08
6694;BME280;3384;42.628;23.380;2023-06-19T12:47:19;94248.19;;;24.34;75.80
6694;BME280;3384;42.628;23.380;2023-06-19T12:49:46;94243.09;;;24.33;76.81
6694;BME280;3384;42.628;23.380;2023-06-19T12:52:13;94251.38;;;24.61;74.96
6694;BME280;3384;42.628;23.380;2023-06-19T12:54:39;94251.06;;;24.73;74.23
6694;BME280;3384;42.628;23.380;2023-06-19T12:57:07;94246.63;;;24.40;72.51
6694;BME280;3384;42.628;23.380;2023-06-19T12:59:35;94237.63;;;24.47;72.00
6694;BME280;3384;42.628;23.380;2023-06-19T13:02:03;94240.41;;;24.50;75.95
6694;BME280;3384;42.628;23.380;2023-06-19T13:04:30;94248.25;;;24.62;75.86
6694;BME280;3384;42.628;23.380;2023-06-19T13:06:56;94225.94;;;24.60;74.31
6694;BME280;3384;42.628;23.380;2023-06-19T13:09:23;94227.09;;;24.56;73.66